Aviation Digital Data Service (ADDS)

Output produced by METARs form (1756 UTC 30 August 2015)
found at http://aviationweather.gov/adds/metars/
 
KHPN 301720Z 3018/3118 VRB03KT P6SM SCT050 BKN250 
     FM302000 19006KT P6SM SCT050 BKN250 
     FM302300 VRB03KT P6SM BKN150 
     FM311500 29006KT P6SM BKN250 AMD NOT SKED